sensor_id;sensor_type;location;lat;lon;timestamp;P1;durP1;ratioP1;P2;durP2;ratioP2
1054;SDS011;516;51.482;7.120;2022-12-07T00:05:18;38.00;;;22.43;;
1054;SDS011;516;51.482;7.120;2022-12-07T00:11:10;32.40;;;20.87;;
1054;SDS011;516;51.482;7.120;2022-12-07T00:17:00;39.03;;;23.20;;
1054;SDS011;516;51.482;7.120;2022-12-07T00:22:48;28.70;;;21.47;;
1054;SDS011;516;51.482;7.120;2022-12-07T00:28:36;28.80;;;19.37;;
1054;SDS011;516;51.482;7.120;2022-12-07T00:34:24;30.33;;;20.60;;
1054;SDS011;516;51.482;7.120;2022-12-07T00:40:12;28.27;;;20.63;;
1054;SDS011;516;51.482;7.120;2022-12-07T00:46:00;31.77;;;22.33;;
1054;SDS011;516;51.482;7.120;2022-12-07T00:51:48;37.27;;;24.17;;
1054;SDS011;516;51.482;7.120;2022-12-07T01:07:33;35.30;;;23.60;;
1054;SDS011;516;51.482;7.120;2022-12-07T01:13:20;39.80;;;26.30;;
1054;SDS011;516;51.482;7.120;2022-12-07T01:19:08;41.20;;;25.33;;
1054;SDS011;516;51.482;7.120;2022-12-07T01:24:56;41.80;;;26.90;;
1054;SDS011;516;51.482;7.120;2022-12-07T01:30:44;46.30;;;28.10;;
1054;SDS011;516;51.482;7.120;2022-12-07T01:36:33;43.30;;;25.40;;
1054;SDS011;516;51.482;7.120;2022-12-07T01:42:22;38.80;;;25.33;;
1054;SDS011;516;51.482;7.120;2022-12-07T01:48:10;35.17;;;24.03;;
1054;SDS011;516;51.482;7.120;2022-12-07T01:54:01;40.67;;;27.90;;
1054;SDS011;516;51.482;7.120;2022-12-07T01:59:39;37.40;;;25.60;;
1054;SDS011;516;51.482;7.120;2022-12-07T02:05:29;42.37;;;24.53;;
1054;SDS011;516;51.482;7.120;2022-12-07T02:11:18;44.00;;;27.00;;
1054;SDS011;516;51.482;7.120;2022-12-07T02:23:39;32.80;;;22.10;;
1054;SDS011;516;51.482;7.120;2022-12-07T02:36:31;38.87;;;25.83;;
1054;SDS011;516;51.482;7.120;2022-12-07T02:43:10;38.60;;;24.93;;
1054;SDS011;516;51.482;7.120;2022-12-07T02:49:43;34.33;;;23.60;;
1054;SDS011;516;51.482;7.120;2022-12-07T02:55:34;37.10;;;23.67;;
1054;SDS011;516;51.482;7.120;2022-12-07T03:04:56;33.97;;;23.27;;
1054;SDS011;516;51.482;7.120;2022-12-07T03:17:21;35.37;;;23.57;;
1054;SDS011;516;51.482;7.120;2022-12-07T03:23:13;37.47;;;23.23;;
1054;SDS011;516;51.482;7.120;2022-12-07T03:29:08;32.10;;;22.57;;
1054;SDS011;516;51.482;7.120;2022-12-07T03:35:03;34.93;;;24.53;;
1054;SDS011;516;51.482;7.120;2022-12-07T03:40:57;31.90;;;22.30;;
1054;SDS011;516;51.482;7.120;2022-12-07T03:47:13;32.67;;;24.83;;
1054;SDS011;516;51.482;7.120;2022-12-07T03:53:33;37.80;;;22.60;;
1054;SDS011;516;51.482;7.120;2022-12-07T04:00:00;36.70;;;22.83;;
1054;SDS011;516;51.482;7.120;2022-12-07T04:05:51;34.00;;;23.20;;
1054;SDS011;516;51.482;7.120;2022-12-07T04:14:51;31.00;;;20.63;;
1054;SDS011;516;51.482;7.120;2022-12-07T04:20:39;43.07;;;28.50;;
1054;SDS011;516;51.482;7.120;2022-12-07T04:26:27;44.73;;;26.20;;
1054;SDS011;516;51.482;7.120;2022-12-07T04:32:15;39.03;;;25.47;;
1054;SDS011;516;51.482;7.120;2022-12-07T04:38:02;46.83;;;24.77;;
1054;SDS011;516;51.482;7.120;2022-12-07T04:43:50;42.47;;;25.93;;
1054;SDS011;516;51.482;7.120;2022-12-07T04:49:38;37.23;;;25.67;;
1054;SDS011;516;51.482;7.120;2022-12-07T04:55:26;48.53;;;26.00;;
1054;SDS011;516;51.482;7.120;2022-12-07T05:01:14;41.43;;;23.37;;
1054;SDS011;516;51.482;7.120;2022-12-07T05:06:58;38.93;;;22.90;;
1054;SDS011;516;51.482;7.120;2022-12-07T05:12:46;36.87;;;22.80;;
1054;SDS011;516;51.482;7.120;2022-12-07T05:18:34;42.10;;;22.60;;
1054;SDS011;516;51.482;7.120;2022-12-07T05:24:21;39.73;;;23.30;;
1054;SDS011;516;51.482;7.120;2022-12-07T05:30:09;35.70;;;24.57;;
1054;SDS011;516;51.482;7.120;2022-12-07T05:35:57;37.03;;;22.57;;
1054;SDS011;516;51.482;7.120;2022-12-07T05:41:45;48.97;;;26.70;;
1054;SDS011;516;51.482;7.120;2022-12-07T05:47:51;36.90;;;21.60;;
1054;SDS011;516;51.482;7.120;2022-12-07T05:53:39;39.63;;;22.20;;
1054;SDS011;516;51.482;7.120;2022-12-07T05:59:26;40.10;;;22.60;;
1054;SDS011;516;51.482;7.120;2022-12-07T06:14:53;33.27;;;22.00;;
1054;SDS011;516;51.482;7.120;2022-12-07T06:20:40;36.37;;;21.27;;
1054;SDS011;516;51.482;7.120;2022-12-07T06:26:28;33.60;;;20.70;;
1054;SDS011;516;51.482;7.120;2022-12-07T06:32:16;45.43;;;20.53;;
1054;SDS011;516;51.482;7.120;2022-12-07T06:38:04;30.10;;;18.10;;
1054;SDS011;516;51.482;7.120;2022-12-07T06:43:52;23.80;;;18.47;;
1054;SDS011;516;51.482;7.120;2022-12-07T06:49:39;24.20;;;17.00;;
1054;SDS011;516;51.482;7.120;2022-12-07T06:55:27;25.90;;;16.93;;
1054;SDS011;516;51.482;7.120;2022-12-07T07:01:15;26.77;;;17.43;;
1054;SDS011;516;51.482;7.120;2022-12-07T07:06:58;31.10;;;17.57;;
1054;SDS011;516;51.482;7.120;2022-12-07T07:12:49;23.37;;;15.30;;
1054;SDS011;516;51.482;7.120;2022-12-07T07:18:36;37.47;;;18.03;;
1054;SDS011;516;51.482;7.120;2022-12-07T07:24:24;30.87;;;16.93;;
1054;SDS011;516;51.482;7.120;2022-12-07T07:30:12;26.70;;;16.00;;
1054;SDS011;516;51.482;7.120;2022-12-07T07:36:00;27.90;;;14.90;;
1054;SDS011;516;51.482;7.120;2022-12-07T07:41:47;24.27;;;14.83;;
1054;SDS011;516;51.482;7.120;2022-12-07T07:44:13;20.90;;;15.13;;
1054;SDS011;516;51.482;7.120;2022-12-07T07:46:39;23.77;;;14.87;;
1054;SDS011;516;51.482;7.120;2022-12-07T07:52:26;25.37;;;14.47;;
1054;SDS011;516;51.482;7.120;2022-12-07T07:58:33;21.77;;;15.40;;
1054;SDS011;516;51.482;7.120;2022-12-07T08:04:22;30.00;;;16.13;;
1054;SDS011;516;51.482;7.120;2022-12-07T08:10:09;33.00;;;16.60;;
1054;SDS011;516;51.482;7.120;2022-12-07T08:15:58;22.57;;;15.10;;
1054;SDS011;516;51.482;7.120;2022-12-07T08:21:45;31.97;;;16.90;;
1054;SDS011;516;51.482;7.120;2022-12-07T08:27:32;26.77;;;15.13;;
1054;SDS011;516;51.482;7.120;2022-12-07T08:33:20;24.93;;;15.40;;
1054;SDS011;516;51.482;7.120;2022-12-07T08:39:09;25.93;;;16.20;;
1054;SDS011;516;51.482;7.120;2022-12-07T08:44:57;24.23;;;15.37;;
1054;SDS011;516;51.482;7.120;2022-12-07T08:50:45;20.80;;;13.80;;
1054;SDS011;516;51.482;7.120;2022-12-07T08:56:33;39.97;;;15.57;;
1054;SDS011;516;51.482;7.120;2022-12-07T09:02:21;23.70;;;15.43;;
1054;SDS011;516;51.482;7.120;2022-12-07T09:08:09;33.90;;;15.33;;
1054;SDS011;516;51.482;7.120;2022-12-07T09:13:57;26.93;;;14.83;;
1054;SDS011;516;51.482;7.120;2022-12-07T09:19:45;30.40;;;15.47;;
1054;SDS011;516;51.482;7.120;2022-12-07T09:25:33;17.40;;;14.53;;
1054;SDS011;516;51.482;7.120;2022-12-07T09:31:21;41.63;;;16.10;;
1054;SDS011;516;51.482;7.120;2022-12-07T09:37:09;21.47;;;15.17;;
1054;SDS011;516;51.482;7.120;2022-12-07T09:42:57;20.40;;;14.33;;
1054;SDS011;516;51.482;7.120;2022-12-07T09:48:45;22.77;;;15.47;;
1054;SDS011;516;51.482;7.120;2022-12-07T09:54:35;23.83;;;13.13;;
1054;SDS011;516;51.482;7.120;2022-12-07T10:00:28;26.57;;;15.03;;
1054;SDS011;516;51.482;7.120;2022-12-07T10:09:38;15.60;;;9.90;;
1054;SDS011;516;51.482;7.120;2022-12-07T10:28:03;16.90;;;11.40;;
1054;SDS011;516;51.482;7.120;2022-12-07T10:34:34;18.20;;;11.13;;
1054;SDS011;516;51.482;7.120;2022-12-07T10:40:27;22.00;;;11.37;;
1054;SDS011;516;51.482;7.120;2022-12-07T10:58:24;23.90;;;13.50;;
1054;SDS011;516;51.482;7.120;2022-12-07T11:10:55;16.50;;;9.40;;
1054;SDS011;516;51.482;7.120;2022-12-07T11:23:53;22.87;;;10.00;;
1054;SDS011;516;51.482;7.120;2022-12-07T11:37:13;14.57;;;7.37;;
1054;SDS011;516;51.482;7.120;2022-12-07T11:43:18;13.53;;;7.93;;
1054;SDS011;516;51.482;7.120;2022-12-07T12:05:05;9.70;;;6.53;;
1054;SDS011;516;51.482;7.120;2022-12-07T12:14:58;8.30;;;5.00;;
1054;SDS011;516;51.482;7.120;2022-12-07T12:21:26;6.93;;;4.50;;
1054;SDS011;516;51.482;7.120;2022-12-07T12:27:22;12.27;;;5.90;;
1054;SDS011;516;51.482;7.120;2022-12-07T12:33:14;12.57;;;5.80;;
1054;SDS011;516;51.482;7.120;2022-12-07T12:39:28;12.47;;;5.20;;
1054;SDS011;516;51.482;7.120;2022-12-07T13:01:42;6.60;;;5.40;;
1054;SDS011;516;51.482;7.120;2022-12-07T13:10:21;16.30;;;10.93;;
1054;SDS011;516;51.482;7.120;2022-12-07T13:18:57;15.37;;;10.07;;
1054;SDS011;516;51.482;7.120;2022-12-07T13:24:44;15.33;;;11.10;;
1054;SDS011;516;51.482;7.120;2022-12-07T13:39:54;9.93;;;8.93;;
1054;SDS011;516;51.482;7.120;2022-12-07T13:46:23;16.83;;;9.27;;
1054;SDS011;516;51.482;7.120;2022-12-07T13:52:49;16.13;;;9.70;;
1054;SDS011;516;51.482;7.120;2022-12-07T13:58:37;12.30;;;7.70;;
1054;SDS011;516;51.482;7.120;2022-12-07T14:04:35;14.63;;;5.30;;
1054;SDS011;516;51.482;7.120;2022-12-07T14:25:45;6.27;;;5.30;;
1054;SDS011;516;51.482;7.120;2022-12-07T14:31:34;8.90;;;5.90;;
1054;SDS011;516;51.482;7.120;2022-12-07T14:37:21;11.07;;;6.70;;
1054;SDS011;516;51.482;7.120;2022-12-07T14:43:09;10.27;;;6.10;;
1054;SDS011;516;51.482;7.120;2022-12-07T14:48:59;12.40;;;6.50;;
1054;SDS011;516;51.482;7.120;2022-12-07T14:54:47;8.17;;;7.13;;
1054;SDS011;516;51.482;7.120;2022-12-07T15:00:35;22.00;;;10.93;;
1054;SDS011;516;51.482;7.120;2022-12-07T15:06:22;10.03;;;8.07;;
1054;SDS011;516;51.482;7.120;2022-12-07T15:09:08;13.13;;;7.60;;
1054;SDS011;516;51.482;7.120;2022-12-07T15:11:35;13.93;;;7.90;;
1054;SDS011;516;51.482;7.120;2022-12-07T15:17:22;14.30;;;7.47;;
1054;SDS011;516;51.482;7.120;2022-12-07T15:23:11;11.90;;;6.80;;
1054;SDS011;516;51.482;7.120;2022-12-07T15:28:59;13.40;;;7.23;;
1054;SDS011;516;51.482;7.120;2022-12-07T15:34:46;11.17;;;8.67;;
1054;SDS011;516;51.482;7.120;2022-12-07T15:40:34;10.70;;;7.93;;
1054;SDS011;516;51.482;7.120;2022-12-07T15:46:22;15.23;;;7.30;;
1054;SDS011;516;51.482;7.120;2022-12-07T15:52:09;12.07;;;6.90;;
1054;SDS011;516;51.482;7.120;2022-12-07T15:57:57;7.97;;;6.30;;
1054;SDS011;516;51.482;7.120;2022-12-07T16:03:45;13.80;;;6.67;;
1054;SDS011;516;51.482;7.120;2022-12-07T16:19:27;36.70;;;19.07;;
1054;SDS011;516;51.482;7.120;2022-12-07T16:25:15;14.93;;;7.20;;
1054;SDS011;516;51.482;7.120;2022-12-07T16:31:07;16.73;;;7.97;;
1054;SDS011;516;51.482;7.120;2022-12-07T16:37:36;15.70;;;8.50;;
1054;SDS011;516;51.482;7.120;2022-12-07T16:43:24;13.07;;;8.00;;
1054;SDS011;516;51.482;7.120;2022-12-07T16:49:15;11.13;;;8.23;;
1054;SDS011;516;51.482;7.120;2022-12-07T16:54:43;10.20;;;6.77;;
1054;SDS011;516;51.482;7.120;2022-12-07T17:00:30;10.50;;;7.10;;
1054;SDS011;516;51.482;7.120;2022-12-07T17:06:21;10.40;;;7.90;;
1054;SDS011;516;51.482;7.120;2022-12-07T17:12:29;9.70;;;7.70;;
1054;SDS011;516;51.482;7.120;2022-12-07T17:18:16;13.53;;;7.63;;
1054;SDS011;516;51.482;7.120;2022-12-07T17:24:04;12.60;;;6.83;;
1054;SDS011;516;51.482;7.120;2022-12-07T17:29:53;13.17;;;7.90;;
1054;SDS011;516;51.482;7.120;2022-12-07T17:35:40;13.33;;;9.10;;
1054;SDS011;516;51.482;7.120;2022-12-07T17:41:28;18.37;;;12.00;;
1054;SDS011;516;51.482;7.120;2022-12-07T17:47:35;24.60;;;13.33;;
1054;SDS011;516;51.482;7.120;2022-12-07T17:53:23;15.17;;;10.00;;
1054;SDS011;516;51.482;7.120;2022-12-07T17:59:11;23.03;;;14.20;;
1054;SDS011;516;51.482;7.120;2022-12-07T18:04:59;10.83;;;8.20;;
1054;SDS011;516;51.482;7.120;2022-12-07T18:14:10;10.43;;;8.67;;
1054;SDS011;516;51.482;7.120;2022-12-07T18:19:57;13.10;;;7.93;;
1054;SDS011;516;51.482;7.120;2022-12-07T18:25:46;13.33;;;8.53;;
1054;SDS011;516;51.482;7.120;2022-12-07T18:31:35;11.87;;;9.63;;
1054;SDS011;516;51.482;7.120;2022-12-07T18:37:23;12.40;;;8.60;;
1054;SDS011;516;51.482;7.120;2022-12-07T18:39:51;9.13;;;8.30;;
1054;SDS011;516;51.482;7.120;2022-12-07T18:42:17;10.70;;;9.63;;
1054;SDS011;516;51.482;7.120;2022-12-07T18:48:04;19.77;;;11.27;;
1054;SDS011;516;51.482;7.120;2022-12-07T18:53:54;10.77;;;9.43;;
1054;SDS011;516;51.482;7.120;2022-12-07T18:59:43;14.73;;;9.13;;
1054;SDS011;516;51.482;7.120;2022-12-07T19:05:34;10.67;;;8.43;;
1054;SDS011;516;51.482;7.120;2022-12-07T19:14:44;9.57;;;7.80;;
1054;SDS011;516;51.482;7.120;2022-12-07T19:20:32;16.23;;;10.37;;
1054;SDS011;516;51.482;7.120;2022-12-07T19:26:20;17.13;;;11.20;;
1054;SDS011;516;51.482;7.120;2022-12-07T19:32:08;12.83;;;10.80;;
1054;SDS011;516;51.482;7.120;2022-12-07T19:37:56;13.33;;;10.73;;
1054;SDS011;516;51.482;7.120;2022-12-07T19:43:44;16.53;;;13.00;;
1054;SDS011;516;51.482;7.120;2022-12-07T19:49:33;13.77;;;10.83;;
1054;SDS011;516;51.482;7.120;2022-12-07T19:55:22;16.73;;;11.50;;
1054;SDS011;516;51.482;7.120;2022-12-07T20:01:09;12.93;;;11.00;;
1054;SDS011;516;51.482;7.120;2022-12-07T20:06:58;19.33;;;13.63;;
1054;SDS011;516;51.482;7.120;2022-12-07T20:12:35;17.33;;;13.60;;
1054;SDS011;516;51.482;7.120;2022-12-07T20:18:41;32.23;;;24.83;;
1054;SDS011;516;51.482;7.120;2022-12-07T20:24:29;24.87;;;18.00;;
1054;SDS011;516;51.482;7.120;2022-12-07T20:30:17;25.10;;;19.80;;
1054;SDS011;516;51.482;7.120;2022-12-07T20:36:05;19.63;;;16.37;;
1054;SDS011;516;51.482;7.120;2022-12-07T20:41:54;23.00;;;15.37;;
1054;SDS011;516;51.482;7.120;2022-12-07T20:48:01;25.83;;;16.70;;
1054;SDS011;516;51.482;7.120;2022-12-07T20:53:49;22.60;;;17.53;;
1054;SDS011;516;51.482;7.120;2022-12-07T20:59:36;25.70;;;17.60;;
1054;SDS011;516;51.482;7.120;2022-12-07T21:05:24;22.33;;;18.07;;
1054;SDS011;516;51.482;7.120;2022-12-07T21:14:38;18.87;;;14.87;;
1054;SDS011;516;51.482;7.120;2022-12-07T21:20:27;21.50;;;15.77;;
1054;SDS011;516;51.482;7.120;2022-12-07T21:26:25;22.37;;;16.73;;
1054;SDS011;516;51.482;7.120;2022-12-07T21:32:59;25.60;;;18.30;;
1054;SDS011;516;51.482;7.120;2022-12-07T21:38:47;27.87;;;20.47;;
1054;SDS011;516;51.482;7.120;2022-12-07T21:44:34;24.70;;;16.90;;
1054;SDS011;516;51.482;7.120;2022-12-07T21:50:21;24.60;;;19.03;;
1054;SDS011;516;51.482;7.120;2022-12-07T21:56:25;25.97;;;18.87;;
1054;SDS011;516;51.482;7.120;2022-12-07T22:02:17;26.20;;;21.10;;
1054;SDS011;516;51.482;7.120;2022-12-07T22:08:04;27.90;;;19.27;;
1054;SDS011;516;51.482;7.120;2022-12-07T22:13:52;31.10;;;19.30;;
1054;SDS011;516;51.482;7.120;2022-12-07T22:19:58;27.77;;;20.30;;
1054;SDS011;516;51.482;7.120;2022-12-07T22:25:46;25.40;;;18.03;;
1054;SDS011;516;51.482;7.120;2022-12-07T22:31:33;22.10;;;17.43;;
1054;SDS011;516;51.482;7.120;2022-12-07T22:37:21;24.60;;;17.90;;
1054;SDS011;516;51.482;7.120;2022-12-07T22:43:09;20.23;;;16.60;;
1054;SDS011;516;51.482;7.120;2022-12-07T22:48:57;20.90;;;16.47;;
1054;SDS011;516;51.482;7.120;2022-12-07T22:54:26;28.93;;;17.23;;
1054;SDS011;516;51.482;7.120;2022-12-07T23:00:13;20.10;;;15.80;;
1054;SDS011;516;51.482;7.120;2022-12-07T23:06:06;19.33;;;15.20;;
1054;SDS011;516;51.482;7.120;2022-12-07T23:15:17;21.13;;;14.03;;
1054;SDS011;516;51.482;7.120;2022-12-07T23:21:05;18.17;;;12.90;;
1054;SDS011;516;51.482;7.120;2022-12-07T23:26:52;18.10;;;14.30;;
1054;SDS011;516;51.482;7.120;2022-12-07T23:32:40;18.67;;;14.40;;
1054;SDS011;516;51.482;7.120;2022-12-07T23:38:27;29.83;;;17.57;;
1054;SDS011;516;51.482;7.120;2022-12-07T23:44:15;28.30;;;18.77;;
1054;SDS011;516;51.482;7.120;2022-12-07T23:50:03;25.50;;;18.90;;
1054;SDS011;516;51.482;7.120;2022-12-07T23:55:54;28.43;;;20.60;;
